createdAt,value
2018-12-26T00:00:42.719Z,20.97
2018-12-26T00:03:12.204Z,17.97
2018-12-26T00:05:41.526Z,17.57
2018-12-26T00:08:10.901Z,16.97
2018-12-26T00:10:40.495Z,19.37
2018-12-26T00:13:10.876Z,18.27
2018-12-26T00:15:40.860Z,18.23
2018-12-26T00:18:10.578Z,15.93
2018-12-26T00:20:40.141Z,15.40
2018-12-26T00:23:09.337Z,18.40
2018-12-26T00:25:38.684Z,19.40
2018-12-26T00:28:09.070Z,15.83
2018-12-26T00:30:38.373Z,17.67
2018-12-26T00:33:07.716Z,20.57
2018-12-26T00:35:37.479Z,17.93
2018-12-26T00:38:06.783Z,20.53
2018-12-26T00:40:36.277Z,17.70
2018-12-26T00:43:05.613Z,16.40
2018-12-26T00:45:35.026Z,17.47
2018-12-26T00:48:04.558Z,18.23
2018-12-26T00:50:34.170Z,17.33
2018-12-26T00:53:03.451Z,19.80
2018-12-26T00:55:32.973Z,20.07
2018-12-26T00:58:02.682Z,19.27
2018-12-26T01:00:32.149Z,18.93
2018-12-26T01:03:01.502Z,18.70
2018-12-26T01:05:31.346Z,22.20
2018-12-26T01:08:00.617Z,20.53
2018-12-26T01:10:29.954Z,18.50
2018-12-26T01:12:59.293Z,18.53
2018-12-26T01:15:28.927Z,18.70
2018-12-26T01:17:58.340Z,21.33
2018-12-26T01:20:27.788Z,19.43
2018-12-26T01:22:57.447Z,22.67
2018-12-26T01:25:26.992Z,19.93
2018-12-26T01:27:56.623Z,23.97
2018-12-26T01:30:26.689Z,24.07
2018-12-26T01:32:56.130Z,22.13
2018-12-26T01:35:25.670Z,23.17
2018-12-26T01:37:54.972Z,22.30
2018-12-26T01:40:25.249Z,23.20
2018-12-26T01:42:54.760Z,20.77
2018-12-26T01:45:24.171Z,22.63
2018-12-26T01:47:53.589Z,22.07
2018-12-26T01:50:23.243Z,23.77
2018-12-26T01:52:52.671Z,21.73
2018-12-26T01:55:22.047Z,21.70
2018-12-26T01:57:51.856Z,22.50
2018-12-26T02:00:21.363Z,22.97
2018-12-26T02:02:50.905Z,20.13
2018-12-26T02:05:20.369Z,21.30
2018-12-26T02:07:50.122Z,23.53
2018-12-26T02:10:19.640Z,22.00
2018-12-26T02:12:49.101Z,22.57
2018-12-26T02:15:18.692Z,22.03
2018-12-26T02:17:48.176Z,20.93
2018-12-26T02:20:17.461Z,26.80
2018-12-26T02:22:46.740Z,21.80
2018-12-26T02:25:15.958Z,23.63
2018-12-26T02:27:45.347Z,18.80
2018-12-26T02:30:14.843Z,23.10
2018-12-26T02:32:44.309Z,24.80
2018-12-26T02:35:13.892Z,25.77
2018-12-26T02:37:43.551Z,23.83
2018-12-26T02:40:12.714Z,22.60
2018-12-26T02:42:41.995Z,24.40
2018-12-26T02:45:11.287Z,25.17
2018-12-26T02:47:40.486Z,26.53
2018-12-26T02:50:10.299Z,24.23
2018-12-26T02:52:39.580Z,24.73
2018-12-26T02:55:08.813Z,27.93
2018-12-26T02:57:37.999Z,25.07
2018-12-26T03:00:07.545Z,24.10
2018-12-26T03:02:36.730Z,26.27
2018-12-26T03:05:06.007Z,27.23
2018-12-26T03:07:35.460Z,30.53
2018-12-26T03:10:04.986Z,23.13
2018-12-26T03:12:34.353Z,28.37
2018-12-26T03:15:03.695Z,24.43
2018-12-26T03:17:34.398Z,23.73
2018-12-26T03:20:03.994Z,25.90
2018-12-26T03:22:33.197Z,28.67
2018-12-26T03:25:02.377Z,28.50
2018-12-26T03:27:31.550Z,26.13
2018-12-26T03:30:00.836Z,26.63
2018-12-26T03:32:30.054Z,27.67
2018-12-26T03:34:59.246Z,26.13
2018-12-26T03:37:28.752Z,27.23
2018-12-26T03:39:57.943Z,30.50
2018-12-26T03:42:27.769Z,26.60
2018-12-26T03:44:57.026Z,26.57
2018-12-26T03:47:26.184Z,27.93
2018-12-26T03:49:56.065Z,25.50
2018-12-26T03:52:25.374Z,29.23
2018-12-26T03:54:54.582Z,30.93
2018-12-26T03:57:23.736Z,26.47
2018-12-26T03:59:52.992Z,32.77
2018-12-26T04:02:22.213Z,25.80
2018-12-26T04:04:51.484Z,26.50
2018-12-26T04:07:20.644Z,29.30
2018-12-26T04:09:49.892Z,27.67
2018-12-26T04:12:19.109Z,26.43
2018-12-26T04:14:48.290Z,25.53
2018-12-26T04:17:17.880Z,29.70
2018-12-26T04:19:47.158Z,26.43
2018-12-26T04:22:16.676Z,27.27
2018-12-26T04:24:47.934Z,26.50
2018-12-26T04:27:17.268Z,29.23
2018-12-26T04:29:46.496Z,29.10
2018-12-26T04:32:15.731Z,24.57
2018-12-26T04:34:44.921Z,27.80
2018-12-26T04:37:14.253Z,26.50
2018-12-26T04:39:43.502Z,24.90
2018-12-26T04:42:12.664Z,21.47
2018-12-26T04:44:41.857Z,21.50
2018-12-26T04:47:11.332Z,21.67
2018-12-26T04:49:40.842Z,23.20
2018-12-26T04:52:10.008Z,23.17
2018-12-26T04:54:39.306Z,21.50
2018-12-26T04:57:08.463Z,29.23
2018-12-26T04:59:38.056Z,25.30
2018-12-26T05:02:07.229Z,23.03
2018-12-26T05:04:36.725Z,30.13
2018-12-26T05:07:05.909Z,19.43
2018-12-26T05:09:35.346Z,24.00
2018-12-26T05:12:05.686Z,20.43
2018-12-26T05:14:35.125Z,22.17
2018-12-26T05:17:04.297Z,20.17
2018-12-26T05:19:33.459Z,19.77
2018-12-26T05:22:03.009Z,19.50
2018-12-26T05:24:32.482Z,19.87
2018-12-26T05:27:01.670Z,21.57
2018-12-26T05:29:30.854Z,17.47
2018-12-26T05:32:00.128Z,17.50
2018-12-26T05:34:29.290Z,20.67
2018-12-26T05:36:58.550Z,20.27
2018-12-26T05:39:28.026Z,20.73
2018-12-26T05:41:57.309Z,21.33
2018-12-26T05:44:26.466Z,19.87
2018-12-26T05:46:55.641Z,20.73
2018-12-26T05:49:25.051Z,27.73
2018-12-26T05:51:54.577Z,24.10
2018-12-26T05:54:23.733Z,20.80
2018-12-26T05:56:52.981Z,21.13
2018-12-26T05:59:22.139Z,22.47
2018-12-26T06:01:51.301Z,26.50
2018-12-26T06:04:21.389Z,25.87
2018-12-26T06:06:50.613Z,26.03
2018-12-26T06:09:19.766Z,24.13
2018-12-26T06:11:49.022Z,24.07
2018-12-26T06:14:18.182Z,18.87
2018-12-26T06:16:47.433Z,18.80
2018-12-26T06:19:16.599Z,23.40
2018-12-26T06:21:45.785Z,20.07
2018-12-26T06:24:14.945Z,20.50
2018-12-26T06:26:44.217Z,20.20
2018-12-26T06:29:13.761Z,23.20
2018-12-26T06:31:43.193Z,22.47
2018-12-26T06:34:12.381Z,21.90
2018-12-26T06:36:41.797Z,21.13
2018-12-26T06:39:11.043Z,19.43
2018-12-26T06:41:40.230Z,20.57
2018-12-26T06:44:09.621Z,21.93
2018-12-26T06:46:39.134Z,21.47
2018-12-26T06:49:08.632Z,25.07
2018-12-26T06:51:37.793Z,24.23
2018-12-26T06:54:06.976Z,22.93
2018-12-26T06:56:36.142Z,20.60
2018-12-26T06:59:05.994Z,21.50
2018-12-26T07:01:35.158Z,21.07
2018-12-26T07:04:04.450Z,21.07
2018-12-26T07:06:33.790Z,19.70
2018-12-26T07:09:03.190Z,19.27
2018-12-26T07:11:32.637Z,17.27
2018-12-26T07:14:01.814Z,18.13
2018-12-26T07:16:31.045Z,21.50
2018-12-26T07:19:00.234Z,19.27
2018-12-26T07:21:29.634Z,15.90
2018-12-26T07:23:59.162Z,19.63
2018-12-26T07:26:28.746Z,17.77
2018-12-26T07:28:57.944Z,17.80
2018-12-26T07:31:27.120Z,14.67
2018-12-26T07:33:56.301Z,15.33
2018-12-26T07:36:25.472Z,19.13
2018-12-26T07:38:54.962Z,19.80
2018-12-26T07:41:24.133Z,19.60
2018-12-26T07:43:53.314Z,15.90
2018-12-26T07:46:22.722Z,19.80
2018-12-26T07:48:51.914Z,16.67
2018-12-26T07:51:21.336Z,16.80
2018-12-26T07:53:50.484Z,18.03
2018-12-26T07:56:19.657Z,13.67
2018-12-26T07:58:49.332Z,14.43
2018-12-26T08:01:18.849Z,16.03
2018-12-26T08:03:48.014Z,15.10
2018-12-26T08:06:17.290Z,13.10
2018-12-26T08:08:46.447Z,15.50
2018-12-26T08:11:15.734Z,14.57
2018-12-26T08:13:44.905Z,13.93
2018-12-26T08:16:14.241Z,13.27
2018-12-26T08:18:43.376Z,16.77
2018-12-26T08:21:12.557Z,13.60
2018-12-26T08:23:41.716Z,14.60
2018-12-26T08:26:11.155Z,15.47
2018-12-26T08:28:40.722Z,16.53
2018-12-26T08:31:10.290Z,14.80
2018-12-26T08:33:39.441Z,15.53
2018-12-26T08:36:08.890Z,15.17
2018-12-26T08:38:38.215Z,17.40
2018-12-26T08:41:07.457Z,13.83
2018-12-26T08:43:36.613Z,14.13
2018-12-26T08:46:05.789Z,18.57
2018-12-26T08:48:35.294Z,17.87
2018-12-26T08:51:04.482Z,15.27
2018-12-26T08:53:33.777Z,13.30
2018-12-26T08:56:02.965Z,15.50
2018-12-26T08:58:35.253Z,14.03
2018-12-26T09:01:03.149Z,14.87
2018-12-26T09:03:32.301Z,14.97
2018-12-26T09:06:01.827Z,17.07
2018-12-26T09:08:31.246Z,13.30
2018-12-26T09:11:00.438Z,15.23
2018-12-26T09:13:29.586Z,16.00
2018-12-26T09:15:59.106Z,14.77
2018-12-26T09:18:28.593Z,16.07
2018-12-26T09:20:57.753Z,15.23
2018-12-26T09:23:27.357Z,24.40
2018-12-26T09:25:59.998Z,12.97
2018-12-26T09:28:29.456Z,14.63
2018-12-26T09:30:59.052Z,16.90
2018-12-26T09:33:28.736Z,15.63
2018-12-26T09:35:57.907Z,15.67
2018-12-26T09:38:27.247Z,16.93
2018-12-26T09:40:56.658Z,14.77
2018-12-26T09:43:25.931Z,13.90
2018-12-26T09:46:02.283Z,18.20
2018-12-26T09:48:31.220Z,15.47
2018-12-26T09:51:00.452Z,15.90
2018-12-26T09:53:29.983Z,16.63
2018-12-26T09:55:59.150Z,17.30
2018-12-26T09:58:28.345Z,15.00
2018-12-26T10:00:57.733Z,17.60
2018-12-26T10:03:26.907Z,16.57
2018-12-26T10:05:56.314Z,15.27
2018-12-26T10:08:25.699Z,18.83
2018-12-26T10:10:54.925Z,15.43
2018-12-26T10:13:24.325Z,17.43
2018-12-26T10:15:53.477Z,18.77
2018-12-26T10:18:22.978Z,16.67
2018-12-26T10:20:52.399Z,15.27
2018-12-26T10:23:21.933Z,15.07
2018-12-26T10:25:51.311Z,16.40
2018-12-26T10:28:20.579Z,16.60
2018-12-26T10:30:49.969Z,17.37
2018-12-26T10:33:19.187Z,15.37
2018-12-26T10:35:48.770Z,18.33
2018-12-26T10:38:17.970Z,17.17
2018-12-26T10:40:47.390Z,17.63
2018-12-26T10:43:16.886Z,22.47
2018-12-26T10:45:46.129Z,19.73
2018-12-26T10:48:15.579Z,20.17
2018-12-26T10:50:45.012Z,15.87
2018-12-26T10:53:14.233Z,18.07
2018-12-26T10:55:43.769Z,22.00
2018-12-26T10:58:13.251Z,17.67
2018-12-26T11:00:42.702Z,19.83
2018-12-26T11:03:12.232Z,18.93
2018-12-26T11:05:41.545Z,17.20
2018-12-26T11:08:11.089Z,18.17
2018-12-26T11:10:40.811Z,20.20
2018-12-26T11:13:10.303Z,17.47
2018-12-26T11:15:39.801Z,18.93
2018-12-26T11:18:08.953Z,17.70
2018-12-26T11:20:38.218Z,19.77
2018-12-26T11:23:07.629Z,17.33
2018-12-26T11:25:37.070Z,21.00
2018-12-26T11:28:06.242Z,19.33
2018-12-26T11:30:35.521Z,20.13
2018-12-26T11:33:04.745Z,22.10
2018-12-26T11:35:33.944Z,18.97
2018-12-26T11:38:03.094Z,18.70
2018-12-26T11:40:32.657Z,18.80
2018-12-26T11:43:02.208Z,19.80
2018-12-26T11:45:31.509Z,16.63
2018-12-26T11:48:01.638Z,18.30
2018-12-26T11:50:30.843Z,18.37
2018-12-26T11:53:00.032Z,17.60
2018-12-26T11:55:29.405Z,18.93
2018-12-26T11:57:59.188Z,20.03
2018-12-26T12:00:28.355Z,20.43
2018-12-26T12:02:57.532Z,20.37
2018-12-26T12:05:26.793Z,17.07
2018-12-26T12:07:56.042Z,19.30
2018-12-26T12:10:25.378Z,18.90
2018-12-26T12:12:54.627Z,18.27
2018-12-26T12:15:24.058Z,21.10
2018-12-26T12:17:53.334Z,18.37
2018-12-26T12:20:22.770Z,19.17
2018-12-26T12:22:51.937Z,17.13
2018-12-26T12:25:21.289Z,17.57
2018-12-26T12:27:50.981Z,19.30
2018-12-26T12:30:20.234Z,18.63
2018-12-26T12:32:49.435Z,18.10
2018-12-26T12:35:19.587Z,20.47
2018-12-26T12:37:49.103Z,17.60
2018-12-26T12:40:18.345Z,18.77
2018-12-26T12:42:47.898Z,17.63
2018-12-26T12:45:17.147Z,19.93
2018-12-26T12:47:46.327Z,20.07
2018-12-26T12:50:15.749Z,14.00
2018-12-26T12:52:45.502Z,18.80
2018-12-26T12:55:14.690Z,16.10
2018-12-26T12:57:43.873Z,19.90
2018-12-26T13:00:13.072Z,16.60
2018-12-26T13:02:42.311Z,19.80
2018-12-26T13:05:11.551Z,20.63
2018-12-26T13:07:40.733Z,21.87
2018-12-26T13:10:09.930Z,20.20
2018-12-26T13:12:39.193Z,20.53
2018-12-26T13:15:08.539Z,17.47
2018-12-26T13:17:37.902Z,21.47
2018-12-26T13:20:08.377Z,20.30
2018-12-26T13:22:37.601Z,20.27
2018-12-26T13:25:07.106Z,22.77
2018-12-26T13:27:36.557Z,22.70
2018-12-26T13:30:07.395Z,23.53
2018-12-26T13:32:36.732Z,21.93
2018-12-26T13:35:05.935Z,20.03
2018-12-26T13:37:44.436Z,22.27
2018-12-26T13:40:13.860Z,18.70
2018-12-26T13:42:43.287Z,20.30
2018-12-26T13:45:12.534Z,19.10
2018-12-26T13:47:42.693Z,20.73
2018-12-26T13:50:11.906Z,21.50
2018-12-26T13:52:41.216Z,19.67
2018-12-26T13:55:10.430Z,20.13
2018-12-26T13:57:39.948Z,19.00
2018-12-26T14:00:10.598Z,18.17
2018-12-26T14:02:40.034Z,22.80
2018-12-26T14:05:09.319Z,20.97
2018-12-26T14:07:39.339Z,18.53
2018-12-26T14:10:10.590Z,18.37
2018-12-26T14:12:40.742Z,19.70
2018-12-26T14:15:10.762Z,18.43
2018-12-26T14:17:40.035Z,17.73
2018-12-26T14:20:09.460Z,17.70
2018-12-26T14:22:38.765Z,20.87
2018-12-26T14:25:08.574Z,17.13
2018-12-26T14:27:38.092Z,17.70
2018-12-26T14:30:11.277Z,17.63
2018-12-26T14:32:39.510Z,14.50
2018-12-26T14:35:09.176Z,15.97
2018-12-26T14:37:38.612Z,16.50
2018-12-26T14:40:07.861Z,16.83
2018-12-26T14:42:37.319Z,15.37
2018-12-26T14:45:07.575Z,17.67
2018-12-26T14:47:36.835Z,17.50
2018-12-26T14:50:06.676Z,17.40
2018-12-26T14:52:35.954Z,15.70
2018-12-26T14:55:05.606Z,16.53
2018-12-26T14:57:34.788Z,19.90
2018-12-26T15:00:04.358Z,17.10
2018-12-26T15:02:33.612Z,15.17
2018-12-26T15:05:03.399Z,29.50
2018-12-26T15:07:33.049Z,22.03
2018-12-26T15:10:02.434Z,18.17
2018-12-26T15:12:31.952Z,21.07
2018-12-26T15:15:01.471Z,20.07
2018-12-26T15:17:30.912Z,22.03
2018-12-26T15:20:00.309Z,21.73
2018-12-26T15:22:29.553Z,22.47
2018-12-26T15:24:59.430Z,21.40
2018-12-26T15:27:28.782Z,22.57
2018-12-26T15:29:58.084Z,21.67
2018-12-26T15:32:27.688Z,20.73
2018-12-26T15:34:56.906Z,25.23
2018-12-26T15:37:26.178Z,23.33
2018-12-26T15:39:55.722Z,24.23
2018-12-26T15:42:25.001Z,22.07
2018-12-26T15:44:54.635Z,23.27
2018-12-26T15:47:24.289Z,23.50
2018-12-26T15:49:53.995Z,23.30
2018-12-26T15:52:23.678Z,25.90
2018-12-26T15:54:53.449Z,26.30
2018-12-26T15:57:22.792Z,22.73
2018-12-26T15:59:52.098Z,22.23
2018-12-26T16:02:21.393Z,25.07
2018-12-26T16:04:50.875Z,26.00
2018-12-26T16:07:20.395Z,30.37
2018-12-26T16:09:50.199Z,26.27
2018-12-26T16:12:19.547Z,27.03
2018-12-26T16:14:48.994Z,25.17
2018-12-26T16:17:18.287Z,25.77
2018-12-26T16:19:47.473Z,26.67
2018-12-26T16:22:16.755Z,29.23
2018-12-26T16:24:45.934Z,23.90
2018-12-26T16:27:16.164Z,27.13
2018-12-26T16:29:46.048Z,29.37
2018-12-26T16:32:15.386Z,24.37
2018-12-26T16:34:44.638Z,26.10
2018-12-26T16:37:14.204Z,28.63
2018-12-26T16:39:43.401Z,29.50
2018-12-26T16:42:12.920Z,31.50
2018-12-26T16:44:42.176Z,26.67
2018-12-26T16:47:11.723Z,30.03
2018-12-26T16:49:41.083Z,27.43
2018-12-26T16:52:10.288Z,29.30
2018-12-26T16:54:39.919Z,28.13
2018-12-26T16:57:09.363Z,29.23
2018-12-26T16:59:38.553Z,31.27
2018-12-26T17:02:07.756Z,28.80
2018-12-26T17:04:37.415Z,31.83
2018-12-26T17:07:06.954Z,29.33
2018-12-26T17:09:36.835Z,30.23
2018-12-26T17:12:06.286Z,31.30
2018-12-26T17:14:36.046Z,28.97
2018-12-26T17:17:05.596Z,27.77
2018-12-26T17:19:34.907Z,31.10
2018-12-26T17:22:04.210Z,31.80
2018-12-26T17:24:33.486Z,30.20
2018-12-26T17:27:03.093Z,30.57
2018-12-26T17:29:32.306Z,32.17
2018-12-26T17:32:01.493Z,31.27
2018-12-26T17:34:31.044Z,31.37
2018-12-26T17:37:00.562Z,31.40
2018-12-26T17:39:30.074Z,35.17
2018-12-26T17:41:59.241Z,32.90
2018-12-26T17:44:29.116Z,28.60
2018-12-26T17:46:58.646Z,35.33
2018-12-26T17:49:27.914Z,32.27
2018-12-26T17:51:57.675Z,30.00
2018-12-26T17:55:02.530Z,27.30
2018-12-26T17:57:38.631Z,28.63
2018-12-26T18:00:44.304Z,30.07
2018-12-26T18:03:14.463Z,23.40
2018-12-26T18:05:43.781Z,29.43
2018-12-26T18:08:13.305Z,29.07
2018-12-26T18:10:43.042Z,30.13
2018-12-26T18:13:12.479Z,28.67
2018-12-26T18:15:41.754Z,24.87
2018-12-26T18:18:11.265Z,30.20
2018-12-26T18:20:40.711Z,29.90
2018-12-26T18:23:10.101Z,30.53
2018-12-26T18:25:39.574Z,25.80
2018-12-26T18:28:08.893Z,27.30
2018-12-26T18:30:38.170Z,30.80
2018-12-26T18:33:07.783Z,27.93
2018-12-26T18:35:37.149Z,30.13
2018-12-26T18:38:06.396Z,29.47
2018-12-26T18:40:35.810Z,29.60
2018-12-26T18:43:05.013Z,30.37
2018-12-26T18:45:34.301Z,30.83
2018-12-26T18:48:03.531Z,32.37
2018-12-26T18:50:32.995Z,33.93
2018-12-26T18:53:02.592Z,26.83
2018-12-26T18:55:31.799Z,27.63
2018-12-26T18:58:01.594Z,25.77
2018-12-26T19:00:31.153Z,27.13
2018-12-26T19:03:00.414Z,29.77
2018-12-26T19:05:30.060Z,30.63
2018-12-26T19:07:59.433Z,27.93
2018-12-26T19:10:28.778Z,33.13
2018-12-26T19:12:58.529Z,30.13
2018-12-26T19:15:27.782Z,32.27
2018-12-26T19:17:57.430Z,29.10
2018-12-26T19:20:27.042Z,28.33
2018-12-26T19:22:56.543Z,31.70
2018-12-26T19:25:26.089Z,32.03
2018-12-26T19:27:55.346Z,33.03
2018-12-26T19:30:24.699Z,36.50
2018-12-26T19:32:54.009Z,28.73
2018-12-26T19:35:23.511Z,34.63
2018-12-26T19:37:52.840Z,29.40
2018-12-26T19:40:22.218Z,32.67
2018-12-26T19:42:51.671Z,35.67
2018-12-26T19:45:21.453Z,35.00
2018-12-26T19:47:51.356Z,31.73
2018-12-26T19:50:20.868Z,29.73
2018-12-26T19:52:50.846Z,31.13
2018-12-26T19:55:21.018Z,32.90
2018-12-26T19:57:52.038Z,33.03
2018-12-26T20:00:21.897Z,30.03
2018-12-26T20:02:51.497Z,29.77
2018-12-26T20:05:21.031Z,28.17
2018-12-26T20:07:50.511Z,30.17
2018-12-26T20:10:25.123Z,28.00
2018-12-26T20:12:54.708Z,29.50
2018-12-26T20:15:24.320Z,33.40
2018-12-26T20:17:54.062Z,28.13
2018-12-26T20:20:23.713Z,31.57
2018-12-26T20:22:53.194Z,29.40
2018-12-26T20:25:23.267Z,27.87
2018-12-26T20:27:52.839Z,30.97
2018-12-26T20:30:22.682Z,28.90
2018-12-26T20:32:52.226Z,29.17
2018-12-26T20:35:21.796Z,29.83
2018-12-26T20:37:51.245Z,28.80
2018-12-26T20:40:20.915Z,29.93
2018-12-26T20:42:50.386Z,32.80
2018-12-26T20:45:19.721Z,29.47
2018-12-26T20:47:49.340Z,30.27
2018-12-26T20:50:19.081Z,33.27
2018-12-26T20:52:48.617Z,30.53
2018-12-26T20:55:18.205Z,33.37
2018-12-26T20:57:47.456Z,31.17
2018-12-26T21:00:16.888Z,32.87
2018-12-26T21:02:46.409Z,31.63
2018-12-26T21:05:16.101Z,33.33
2018-12-26T21:07:45.855Z,35.70
2018-12-26T21:10:15.189Z,30.17
2018-12-26T21:12:44.696Z,32.13
2018-12-26T21:15:14.441Z,34.83
2018-12-26T21:17:43.929Z,36.97
2018-12-26T21:20:14.154Z,34.80
2018-12-26T21:22:44.082Z,34.90
2018-12-26T21:25:13.874Z,33.17
2018-12-26T21:27:43.054Z,33.07
2018-12-26T21:30:15.019Z,31.47
2018-12-26T21:32:44.374Z,34.33
2018-12-26T21:35:14.026Z,34.63
2018-12-26T21:37:43.287Z,33.00
2018-12-26T21:40:12.585Z,33.27
2018-12-26T21:42:42.643Z,37.00
2018-12-26T21:45:12.728Z,36.70
2018-12-26T21:47:42.088Z,35.43
2018-12-26T21:50:12.425Z,38.90
2018-12-26T21:52:42.710Z,37.53
2018-12-26T21:55:12.343Z,36.60
2018-12-26T21:57:41.986Z,39.20
2018-12-26T22:00:12.117Z,37.80
2018-12-26T22:02:41.285Z,33.93
2018-12-26T22:05:10.657Z,37.60
2018-12-26T22:07:40.026Z,37.70
2018-12-26T22:10:10.200Z,36.63
2018-12-26T22:12:39.795Z,37.93
2018-12-26T22:15:09.570Z,35.87
2018-12-26T22:17:39.306Z,37.77
2018-12-26T22:20:09.077Z,39.30
2018-12-26T22:22:38.410Z,34.43
2018-12-26T22:25:08.037Z,35.20
2018-12-26T22:27:37.592Z,36.13
2018-12-26T22:30:09.348Z,37.07
2018-12-26T22:32:38.676Z,40.53
2018-12-26T22:35:09.493Z,36.13
2018-12-26T22:37:39.456Z,36.33
2018-12-26T22:40:08.753Z,40.50
2018-12-26T22:42:37.955Z,35.87
2018-12-26T22:45:07.230Z,43.20
2018-12-26T22:47:36.782Z,39.37
2018-12-26T22:50:06.573Z,37.73
2018-12-26T22:52:36.411Z,38.73
2018-12-26T22:55:06.007Z,36.53
2018-12-26T22:57:35.495Z,36.97
2018-12-26T23:00:07.468Z,36.80
2018-12-26T23:02:39.044Z,37.70
2018-12-26T23:05:07.866Z,35.13
2018-12-26T23:07:37.148Z,37.60
2018-12-26T23:10:07.008Z,39.43
2018-12-26T23:12:36.195Z,36.23
2018-12-26T23:15:06.149Z,40.63
2018-12-26T23:17:35.338Z,41.70
2018-12-26T23:20:04.886Z,37.67
2018-12-26T23:22:34.212Z,37.27
2018-12-26T23:25:03.365Z,38.33
2018-12-26T23:27:32.623Z,37.13
2018-12-26T23:30:02.220Z,40.20
2018-12-26T23:32:31.546Z,36.33
2018-12-26T23:35:00.927Z,38.17
2018-12-26T23:37:30.530Z,39.60
2018-12-26T23:39:59.731Z,41.00
2018-12-26T23:42:29.235Z,44.33
2018-12-26T23:44:58.711Z,38.27
2018-12-26T23:47:27.877Z,38.40
2018-12-26T23:49:57.071Z,38.97
2018-12-26T23:52:26.242Z,37.87
2018-12-26T23:54:55.481Z,38.10
2018-12-26T23:57:24.723Z,38.50
2018-12-26T23:59:53.947Z,41.67
